Time;durP1;ratioP1;P1;durP2;ratioP2;P2;SDS_P1;SDS_P2;PMS_P1;PMS_P2;Temp;Humidity;BMP_temperature;BMP_pressure;BME280_temperature;BME280_humidity;BME280_pressure;Samples;Min_cycle;Max_cycle;Signal;HPM_P1;HPM_P2
2022/06/04 00:00:56;;;;;;;10.77;5.93;;;18.70;65.30;;;;;;4992413;28;20042;-73
2022/06/04 00:03:22;;;;;;;8.40;5.85;;;18.70;65.00;;;;;;4982942;28;20084;-75
2022/06/04 00:05:52;;;;;;;9.13;6.25;;;18.80;65.10;;;;;;4988420;28;20026;-72
2022/06/04 00:08:18;;;;;;;9.35;6.20;;;18.80;64.90;;;;;;4978861;28;20047;-72
2022/06/04 00:16:19;;;;;;;8.10;5.30;;;18.70;64.60;;;;;;4978406;28;20037;-72
2022/06/04 00:18:45;;;;;;;8.10;5.72;;;18.80;64.70;;;;;;4993376;28;20486;-72
2022/06/04 00:21:12;;;;;;;8.65;5.85;;;18.80;64.50;;;;;;4986781;28;20031;-72
2022/06/04 00:23:39;;;;;;;11.52;5.82;;;18.70;64.60;;;;;;4989144;28;20045;-72
2022/06/04 00:26:08;;;;;;;8.07;5.20;;;18.80;64.80;;;;;;4996518;28;20472;-72
2022/06/04 00:28:34;;;;;;;10.48;5.20;;;18.70;64.50;;;;;;4995334;28;20106;-72
2022/06/04 00:31:00;;;;;;;10.00;5.50;;;18.80;64.50;;;;;;4986010;28;20054;-72
2022/06/04 00:33:26;;;;;;;8.15;5.13;;;18.70;64.80;;;;;;4979154;28;20104;-72
2022/06/04 00:35:55;;;;;;;8.15;5.00;;;18.70;64.90;;;;;;4993613;28;20173;-73
2022/06/04 00:38:23;;;;;;;8.18;5.43;;;18.70;65.00;;;;;;4988472;28;20066;-72
2022/06/04 00:40:52;;;;;;;9.15;5.35;;;18.60;64.70;;;;;;4998401;28;20030;-72
2022/06/04 00:43:19;;;;;;;7.30;4.90;;;18.60;64.50;;;;;;4987702;28;20074;-72
2022/06/04 00:46:09;;;;;;;9.65;5.10;;;18.60;64.60;;;;;;4986743;28;20038;-72
2022/06/04 00:48:35;;;;;;;8.43;5.20;;;18.60;64.80;;;;;;4996954;28;20048;-73
2022/06/04 00:51:02;;;;;;;8.57;5.25;;;18.60;65.00;;;;;;4994315;28;20501;-73
2022/06/04 00:53:27;;;;;;;9.45;5.13;;;18.60;65.10;;;;;;4994538;28;20157;-73
2022/06/04 00:56:20;;;;;;;7.75;5.45;;;18.60;65.60;;;;;;4991537;28;20549;-73
2022/06/04 00:59:00;;;;;;;8.60;5.07;;;18.60;66.10;;;;;;4989435;28;20108;-73
2022/06/04 01:01:31;;;;;;;10.40;5.25;;;18.50;65.80;;;;;;4981966;28;20067;-73
2022/06/04 01:04:06;;;;;;;11.15;5.32;;;18.50;66.50;;;;;;4972340;28;20027;-72
2022/06/04 01:06:43;;;;;;;9.60;5.38;;;18.50;66.80;;;;;;4991872;28;20038;-72
2022/06/04 01:09:33;;;;;;;11.75;5.68;;;18.50;68.20;;;;;;4989103;28;20022;-72
2022/06/04 01:12:11;;;;;;;8.95;5.90;;;18.40;68.10;;;;;;4986624;28;20034;-72
2022/06/04 01:15:02;;;;;;;11.18;5.80;;;18.30;67.70;;;;;;4994026;28;20792;-73
2022/06/04 01:17:33;;;;;;;10.43;6.07;;;18.10;68.90;;;;;;4992165;28;20058;-72
2022/06/04 01:19:59;;;;;;;9.85;6.10;;;18.10;69.50;;;;;;4980536;28;20049;-73
2022/06/04 01:22:54;;;;;;;8.77;6.07;;;17.80;70.70;;;;;;4987781;28;20046;-73
2022/06/04 01:25:19;;;;;;;;;;;17.60;71.60;;;;;;4989532;28;20093;-73
2022/06/04 01:27:48;;;;;;;10.07;6.43;;;17.60;72.10;;;;;;4988679;28;20454;-73
2022/06/04 01:30:19;;;;;;;9.18;6.32;;;17.60;72.70;;;;;;4987611;28;20051;-73
2022/06/04 01:32:51;;;;;;;11.45;6.47;;;17.50;73.10;;;;;;4993921;28;20041;-72
2022/06/04 01:35:49;;;;;;;12.43;6.72;;;17.40;72.80;;;;;;4990021;28;20091;-72
2022/06/04 01:38:44;;;;;;;10.15;6.68;;;17.40;74.00;;;;;;4982228;28;20582;-72
2022/06/04 01:41:13;;;;;;;10.38;6.43;;;17.40;74.30;;;;;;4982100;28;20042;-72
2022/06/04 01:43:47;;;;;;;10.60;7.00;;;17.20;74.50;;;;;;4988525;28;20545;-72
2022/06/04 01:46:28;;;;;;;10.05;7.13;;;17.10;74.90;;;;;;4980933;28;20478;-72
2022/06/04 01:49:07;;;;;;;8.35;6.45;;;17.10;74.80;;;;;;4992267;28;20036;-72
2022/06/04 01:51:34;;;;;;;7.97;6.13;;;17.10;74.70;;;;;;4989489;28;20058;-72
2022/06/04 01:54:06;;;;;;;9.20;6.50;;;16.90;75.10;;;;;;4999488;28;20133;-72
2022/06/04 01:56:39;;;;;;;8.30;6.53;;;16.90;75.70;;;;;;4993217;28;20046;-72
2022/06/04 01:59:16;;;;;;;8.80;6.40;;;16.80;75.80;;;;;;4995018;28;20037;-72
2022/06/04 02:01:44;;;;;;;10.52;6.80;;;16.80;75.90;;;;;;4988821;28;20048;-72
2022/06/04 02:04:26;;;;;;;12.75;6.53;;;16.70;75.40;;;;;;4995392;28;20038;-72
2022/06/04 02:09:47;;;;;;;9.00;6.47;;;16.70;75.60;;;;;;4989587;28;20459;-73
2022/06/04 02:12:14;;;;;;;9.63;6.00;;;16.70;75.70;;;;;;4985029;28;20041;-74
2022/06/04 02:14:42;;;;;;;10.45;5.90;;;16.60;76.60;;;;;;4997682;28;20034;-73
2022/06/04 02:17:16;;;;;;;8.73;6.10;;;16.60;76.40;;;;;;4996103;28;20492;-73
2022/06/04 02:19:42;;;;;;;9.98;6.45;;;16.60;75.80;;;;;;4990872;28;20035;-73
2022/06/04 02:22:09;;;;;;;9.32;5.70;;;16.60;75.80;;;;;;4982495;28;20041;-73
2022/06/04 02:24:36;;;;;;;8.73;6.03;;;16.50;75.30;;;;;;4978544;28;20097;-73
2022/06/04 02:27:01;;;;;;;11.45;5.47;;;16.60;75.60;;;;;;4981505;28;20471;-73
2022/06/04 02:29:28;;;;;;;9.48;5.75;;;16.50;74.40;;;;;;4992176;28;20061;-74
2022/06/04 02:32:16;;;;;;;9.27;5.57;;;16.60;74.20;;;;;;4985059;28;20489;-71
2022/06/04 02:34:57;;;;;;;10.43;5.85;;;16.50;73.50;;;;;;4986233;28;20485;-73
2022/06/04 02:37:30;;;;;;;8.20;5.10;;;16.50;73.80;;;;;;5000104;28;20046;-74
2022/06/04 02:40:08;;;;;;;9.40;4.95;;;16.60;73.00;;;;;;4993920;28;20054;-74
2022/06/04 02:42:52;;;;;;;8.82;4.95;;;16.60;73.00;;;;;;4986382;28;20038;-73
2022/06/04 02:45:44;;;;;;;7.25;5.07;;;16.60;72.30;;;;;;4992700;28;20044;-73
2022/06/04 02:48:20;;;;;;;7.55;4.80;;;16.60;71.90;;;;;;4978375;28;20034;-73
2022/06/04 02:50:59;;;;;;;11.05;5.28;;;16.50;71.00;;;;;;4993476;28;20121;-73
2022/06/04 02:53:28;;;;;;;8.25;5.38;;;16.50;71.40;;;;;;5013658;28;20458;-73
2022/06/04 02:55:59;;;;;;;10.65;5.03;;;16.40;71.00;;;;;;4997505;28;20486;-73
2022/06/04 02:58:27;;;;;;;8.07;5.20;;;16.50;71.60;;;;;;4993642;28;20041;-74
2022/06/04 03:00:56;;;;;;;10.23;5.22;;;16.50;71.30;;;;;;4997393;28;20492;-72
2022/06/04 03:03:23;;;;;;;10.00;5.07;;;16.50;70.80;;;;;;5003126;28;20029;-73
2022/06/04 03:06:01;;;;;;;9.10;5.32;;;16.50;71.20;;;;;;4991362;28;20549;-73
2022/06/04 03:08:29;;;;;;;8.23;5.22;;;16.50;71.30;;;;;;4999100;28;20041;-73
2022/06/04 03:10:55;;;;;;;8.75;5.20;;;16.50;71.00;;;;;;4987468;28;20039;-73
2022/06/04 03:13:21;;;;;;;8.93;5.35;;;16.50;70.70;;;;;;4979206;28;20443;-73
2022/06/04 03:15:47;;;;;;;7.35;5.05;;;16.50;71.10;;;;;;4978706;28;20546;-73
2022/06/04 03:18:14;;;;;;;8.73;5.13;;;16.50;70.80;;;;;;4973482;28;20051;-70
2022/06/04 03:20:41;;;;;;;7.65;5.32;;;16.50;71.50;;;;;;4984735;28;20034;-73
2022/06/04 03:23:07;;;;;;;7.85;5.47;;;16.50;71.80;;;;;;4991328;28;20636;-73
2022/06/04 03:25:34;;;;;;;9.10;5.38;;;16.50;71.70;;;;;;4983151;28;20537;-73
2022/06/04 03:28:01;;;;;;;8.48;5.35;;;16.40;71.50;;;;;;4979647;28;20081;-74
2022/06/04 03:30:27;;;;;;;9.45;5.75;;;16.30;71.50;;;;;;4984268;28;20169;-73
2022/06/04 03:32:54;;;;;;;16.17;6.15;;;16.30;71.40;;;;;;4998781;28;20049;-73
2022/06/04 03:35:20;;;;;;;9.88;5.65;;;16.20;71.40;;;;;;4995606;28;20066;-72
2022/06/04 03:37:45;;;;;;;11.07;5.68;;;16.10;71.30;;;;;;4993506;28;20449;-72
2022/06/04 03:40:11;;;;;;;7.95;5.68;;;16.10;71.30;;;;;;4993406;28;20393;-73
2022/06/04 03:42:37;;;;;;;8.10;5.65;;;16.00;71.70;;;;;;4986065;28;20037;-72
2022/06/04 03:45:05;;;;;;;11.23;6.50;;;16.00;71.60;;;;;;4991065;28;20041;-73
2022/06/04 03:47:36;;;;;;;10.50;6.35;;;16.00;71.00;;;;;;4971798;28;20035;-72
2022/06/04 03:50:06;;;;;;;12.05;6.30;;;15.90;71.40;;;;;;4979105;28;20034;-73
2022/06/04 03:52:31;;;;;;;10.95;6.50;;;15.90;71.40;;;;;;4976173;28;20035;-73
2022/06/04 03:54:57;;;;;;;9.73;5.70;;;16.00;71.40;;;;;;4990761;28;20239;-72
2022/06/04 03:57:39;;;;;;;10.65;6.07;;;16.00;71.00;;;;;;4989221;28;20117;-73
2022/06/04 04:00:22;;;;;;;8.77;5.93;;;15.80;71.00;;;;;;4989307;28;20049;-72
2022/06/04 04:02:52;;;;;;;11.63;5.90;;;15.80;70.70;;;;;;4990719;28;20039;-71
2022/06/04 04:05:22;;;;;;;9.70;6.65;;;15.80;70.80;;;;;;4999690;28;20030;-72
2022/06/04 04:07:48;;;;;;;9.93;5.75;;;15.80;70.80;;;;;;4988139;28;20038;-72
2022/06/04 04:10:14;;;;;;;10.18;5.55;;;15.70;70.20;;;;;;4993570;28;20034;-72
2022/06/04 04:12:41;;;;;;;10.77;5.47;;;15.70;70.20;;;;;;4993302;28;20030;-71
2022/06/04 04:15:07;;;;;;;8.77;5.80;;;15.60;70.40;;;;;;4971732;28;20550;-72
2022/06/04 04:17:36;;;;;;;15.30;5.97;;;15.50;70.60;;;;;;4976426;28;20089;-72
2022/06/04 04:20:22;;;;;;;8.52;5.32;;;15.50;70.50;;;;;;4982733;28;20026;-72
2022/06/04 04:22:49;;;;;;;13.35;5.45;;;15.60;70.50;;;;;;4979601;28;20083;-72
2022/06/04 04:25:18;;;;;;;10.07;5.28;;;15.60;70.10;;;;;;4978734;28;20057;-72
2022/06/04 04:27:43;;;;;;;9.75;5.43;;;15.60;69.90;;;;;;4993188;28;20046;-72
2022/06/04 04:30:11;;;;;;;7.05;4.80;;;15.50;69.70;;;;;;4987969;28;20405;-72
2022/06/04 04:32:37;;;;;;;9.25;5.10;;;15.50;69.70;;;;;;4999308;28;20075;-72
2022/06/04 04:35:06;;;;;;;10.30;5.30;;;15.50;69.80;;;;;;4997971;28;20038;-72
2022/06/04 04:37:31;;;;;;;9.38;5.03;;;15.50;69.90;;;;;;4992477;28;20034;-72
2022/06/04 04:39:57;;;;;;;8.80;4.97;;;15.50;69.90;;;;;;4998983;28;20044;-73
2022/06/04 04:42:24;;;;;;;9.23;5.18;;;15.50;69.70;;;;;;4991875;28;20042;-72
2022/06/04 04:44:49;;;;;;;9.40;5.07;;;15.60;69.60;;;;;;4983079;28;20026;-72
2022/06/04 04:47:15;;;;;;;9.18;4.95;;;15.40;69.20;;;;;;4979829;28;20057;-72
2022/06/04 04:49:41;;;;;;;8.95;5.60;;;15.40;69.90;;;;;;4987656;28;20030;-72
2022/06/04 04:52:07;;;;;;;7.85;4.35;;;15.40;69.40;;;;;;4985547;28;20476;-74
2022/06/04 04:54:33;;;;;;;8.90;4.93;;;15.50;69.60;;;;;;4985944;28;20081;-74
2022/06/04 04:56:59;;;;;;;8.30;4.80;;;15.50;69.60;;;;;;4991219;28;20042;-72
2022/06/04 04:59:25;;;;;;;8.70;4.82;;;15.40;69.50;;;;;;4992624;28;20053;-72
2022/06/04 05:01:50;;;;;;;7.55;4.55;;;15.40;69.60;;;;;;5000329;28;20057;-72
2022/06/04 05:04:16;;;;;;;8.73;4.80;;;15.50;69.80;;;;;;4992729;28;20500;-72
2022/06/04 05:06:42;;;;;;;8.13;4.32;;;15.50;69.10;;;;;;4997297;28;20037;-74
2022/06/04 05:09:08;;;;;;;7.95;4.82;;;15.60;69.20;;;;;;4981433;28;20031;-71
2022/06/04 05:11:34;;;;;;;8.00;4.60;;;15.60;69.30;;;;;;4990550;28;20073;-73
2022/06/04 05:14:01;;;;;;;9.45;4.55;;;15.60;68.60;;;;;;4996891;28;20030;-73
2022/06/04 05:16:30;;;;;;;8.00;5.43;;;15.70;68.60;;;;;;4980304;28;20030;-72
2022/06/04 05:18:55;;;;;;;13.15;4.85;;;15.70;68.50;;;;;;4990310;28;20034;-72
2022/06/04 05:21:23;;;;;;;9.48;4.55;;;15.70;67.90;;;;;;4992470;28;20033;-71
2022/06/04 05:23:49;;;;;;;8.68;5.32;;;15.70;69.20;;;;;;4998276;28;20034;-71
2022/06/04 05:26:16;;;;;;;9.43;4.88;;;15.70;67.50;;;;;;4996226;28;20090;-71
2022/06/04 05:28:42;;;;;;;8.27;5.50;;;15.70;67.90;;;;;;5002489;28;20104;-72
2022/06/04 05:31:09;;;;;;;8.15;5.10;;;15.80;67.40;;;;;;5001886;28;20033;-72
2022/06/04 05:33:35;;;;;;;9.98;5.18;;;15.80;67.30;;;;;;5007690;28;20626;-72
2022/06/04 05:36:02;;;;;;;7.45;5.00;;;15.80;67.00;;;;;;5019140;28;20029;-72
2022/06/04 05:38:27;;;;;;;8.85;5.22;;;15.80;66.80;;;;;;5011863;28;20456;-72
2022/06/04 05:41:11;;;;;;;8.45;5.25;;;15.80;66.50;;;;;;5015372;28;20060;-72
2022/06/04 05:43:40;;;;;;;10.82;5.60;;;15.70;67.30;;;;;;5016419;28;20026;-72
2022/06/04 05:46:08;;;;;;;8.88;5.65;;;15.80;66.60;;;;;;5014701;28;20098;-72
2022/06/04 05:48:41;;;;;;;8.93;4.97;;;15.60;66.50;;;;;;5011041;28;20365;-72
2022/06/04 05:51:10;;;;;;;8.98;5.20;;;15.70;66.40;;;;;;4998839;28;20089;-72
2022/06/04 05:53:36;;;;;;;8.77;5.10;;;15.60;66.70;;;;;;5012346;28;20369;-71
2022/06/04 05:56:01;;;;;;;10.57;5.53;;;15.80;66.60;;;;;;5005713;28;20022;-72
2022/06/04 05:58:27;;;;;;;8.50;5.20;;;15.70;66.60;;;;;;5006368;28;20081;-72
2022/06/04 06:01:00;;;;;;;9.50;5.50;;;15.80;66.40;;;;;;5004431;28;20451;-73
2022/06/04 06:03:25;;;;;;;8.85;5.32;;;15.60;66.40;;;;;;5016255;28;20458;-73
2022/06/04 06:05:51;;;;;;;11.18;5.47;;;15.60;66.40;;;;;;5017976;28;20022;-73
2022/06/04 06:08:16;;;;;;;8.57;5.80;;;15.70;66.40;;;;;;5018371;28;20033;-73
2022/06/04 06:10:46;;;;;;;8.90;5.40;;;15.60;66.30;;;;;;5013999;28;20104;-74
2022/06/04 06:13:12;;;;;;;10.73;6.05;;;15.60;67.20;;;;;;5039392;28;20026;-73
2022/06/04 06:15:38;;;;;;;7.63;5.72;;;15.60;67.30;;;;;;5014095;28;20036;-73
2022/06/04 06:18:06;;;;;;;11.48;6.28;;;15.60;67.10;;;;;;5006948;28;20038;-73
2022/06/04 06:20:33;;;;;;;9.52;5.38;;;15.60;67.20;;;;;;5001364;28;20546;-72
2022/06/04 06:22:59;;;;;;;10.80;6.47;;;15.60;66.80;;;;;;5006809;28;20121;-73
2022/06/04 06:25:25;;;;;;;9.32;5.85;;;15.70;67.20;;;;;;5008803;28;20053;-73
2022/06/04 06:27:51;;;;;;;9.10;6.07;;;15.80;66.20;;;;;;5005854;28;20437;-73
2022/06/04 06:30:17;;;;;;;10.35;5.90;;;16.00;66.10;;;;;;5010678;28;20030;-73
2022/06/04 06:32:43;;;;;;;9.25;5.65;;;16.10;65.40;;;;;;5007986;28;20030;-73
2022/06/04 06:35:09;;;;;;;8.18;5.68;;;16.10;65.70;;;;;;5006191;28;20117;-73
2022/06/04 06:37:36;;;;;;;8.25;5.63;;;16.40;65.00;;;;;;5010134;28;20076;-72
2022/06/04 06:40:03;;;;;;;10.65;6.00;;;16.60;64.90;;;;;;5015900;28;20030;-73
2022/06/04 06:42:29;;;;;;;8.68;5.80;;;17.00;64.20;;;;;;5013069;28;20191;-73
2022/06/04 06:44:55;;;;;;;9.45;6.40;;;17.30;62.30;;;;;;5009695;28;20109;-74
2022/06/04 06:47:21;;;;;;;8.90;5.72;;;17.10;61.90;;;;;;5006578;28;20112;-73
2022/06/04 06:49:47;;;;;;;9.43;6.10;;;17.00;62.40;;;;;;5011420;28;20037;-73
2022/06/04 06:52:13;;;;;;;8.27;5.22;;;16.90;63.20;;;;;;5006797;28;20503;-72
2022/06/04 06:54:39;;;;;;;8.50;5.93;;;17.10;62.40;;;;;;5001768;28;20026;-72
2022/06/04 06:57:08;;;;;;;9.60;6.18;;;17.30;62.10;;;;;;4999881;28;20046;-73
2022/06/04 06:59:34;;;;;;;10.48;6.35;;;17.00;62.40;;;;;;5001187;28;20579;-73
2022/06/04 07:02:01;;;;;;;8.32;6.15;;;16.70;61.80;;;;;;4997274;28;20466;-73
2022/06/04 07:04:27;;;;;;;9.57;6.20;;;16.60;63.50;;;;;;5010281;28;20066;-72
2022/06/04 07:06:57;;;;;;;9.68;6.45;;;16.70;62.20;;;;;;5034515;28;20075;-73
2022/06/04 07:09:51;;;;;;;11.00;6.88;;;17.00;63.00;;;;;;5023070;28;20109;-72
2022/06/04 07:12:17;;;;;;;9.10;6.95;;;17.60;60.50;;;;;;5013367;28;20081;-73
2022/06/04 07:14:42;;;;;;;7.90;6.38;;;17.60;61.30;;;;;;4993310;28;20042;-72
2022/06/04 07:17:08;;;;;;;9.02;6.68;;;17.60;60.20;;;;;;4995106;28;20046;-73
2022/06/04 07:19:34;;;;;;;10.20;6.97;;;17.50;60.70;;;;;;5002340;28;20030;-73
2022/06/04 07:22:00;;;;;;;11.20;6.85;;;17.60;60.40;;;;;;4996334;28;20368;-73
2022/06/04 07:24:26;;;;;;;13.48;6.72;;;17.80;59.60;;;;;;5005559;28;20029;-73
2022/06/04 07:26:52;;;;;;;9.95;7.13;;;17.60;59.70;;;;;;5003309;28;20378;-73
2022/06/04 07:29:18;;;;;;;10.27;6.80;;;17.40;60.80;;;;;;4998966;28;20042;-72
2022/06/04 07:31:44;;;;;;;9.38;6.72;;;17.40;60.20;;;;;;5000298;28;20085;-73
2022/06/04 07:34:09;;;;;;;11.25;6.72;;;17.40;61.50;;;;;;4995659;28;20304;-73
2022/06/04 07:36:42;;;;;;;10.52;6.82;;;17.70;60.80;;;;;;5002581;28;20025;-73
2022/06/04 07:39:09;;;;;;;10.45;6.88;;;17.70;59.80;;;;;;4994392;28;20042;-73
2022/06/04 07:41:43;;;;;;;12.30;7.88;;;18.00;60.00;;;;;;4994563;28;20042;-73
2022/06/04 07:44:09;;;;;;;10.23;7.57;;;18.00;59.40;;;;;;4994002;28;20430;-72
2022/06/04 07:46:36;;;;;;;10.57;6.82;;;18.10;59.20;;;;;;4996785;28;20157;-73
2022/06/04 07:49:04;;;;;;;9.00;6.50;;;18.40;58.90;;;;;;4996213;28;20047;-73
2022/06/04 07:51:35;;;;;;;10.68;7.25;;;18.40;59.60;;;;;;5007036;28;20034;-73
2022/06/04 07:54:01;;;;;;;11.80;7.10;;;18.10;58.80;;;;;;4996476;28;20030;-73
2022/06/04 07:56:27;;;;;;;10.80;7.53;;;18.60;58.30;;;;;;5011776;28;20511;-73
2022/06/04 07:58:53;;;;;;;10.75;6.97;;;18.90;57.30;;;;;;5008100;28;20123;-73
2022/06/04 08:01:22;;;;;;;9.90;7.07;;;18.60;57.60;;;;;;5008852;28;20465;-73
2022/06/04 08:03:50;;;;;;;10.18;6.50;;;19.10;57.00;;;;;;5003244;28;20410;-73
2022/06/04 08:06:17;;;;;;;11.60;6.70;;;19.40;56.60;;;;;;5007916;28;20119;-73
2022/06/04 08:08:45;;;;;;;9.35;6.53;;;19.60;55.20;;;;;;5011506;28;20044;-73
2022/06/04 08:13:55;;;;;;;;;;;19.50;55.30;;;;;;5000326;28;20041;-73
2022/06/04 08:16:21;;;;;;;11.80;7.35;;;19.40;56.00;;;;;;4992342;28;19921;-72
2022/06/04 08:18:47;;;;;;;13.57;7.75;;;19.30;56.60;;;;;;4993267;28;20037;-74
2022/06/04 08:21:13;;;;;;;10.52;7.80;;;19.10;55.90;;;;;;4991359;28;20042;-74
2022/06/04 08:23:39;;;;;;;11.02;7.93;;;19.00;57.10;;;;;;4996322;28;20022;-72
2022/06/04 08:26:07;;;;;;;9.68;7.90;;;19.10;57.10;;;;;;5001000;28;20034;-74
2022/06/04 08:28:32;;;;;;;11.60;7.50;;;19.10;56.00;;;;;;4993702;28;20048;-71
2022/06/04 08:31:05;;;;;;;12.38;7.93;;;19.30;56.90;;;;;;5003407;28;20029;-72
2022/06/04 08:33:32;;;;;;;11.32;7.60;;;20.00;55.60;;;;;;5001498;28;20050;-72
2022/06/04 08:35:57;;;;;;;10.15;7.32;;;20.10;54.10;;;;;;5001289;28;20045;-73
2022/06/04 08:38:23;;;;;;;9.82;7.60;;;20.40;53.90;;;;;;4984500;28;20482;-73
2022/06/04 08:41:01;;;;;;;12.13;8.63;;;19.70;54.30;;;;;;5013027;28;20453;-73
2022/06/04 08:43:46;;;;;;;12.93;8.23;;;19.70;56.40;;;;;;4999260;28;20030;-73
2022/06/04 08:46:14;;;;;;;;;;;19.40;57.20;;;;;;4998543;28;20031;-73
2022/06/04 08:48:40;;;;;;;10.70;8.13;;;19.50;57.50;;;;;;4998490;28;20416;-74
2022/06/04 08:51:23;;;;;;;14.38;8.73;;;20.00;56.60;;;;;;5002756;28;20034;-74
2022/06/04 08:53:56;;;;;;;11.50;8.15;;;20.20;54.80;;;;;;4996193;28;20470;-74
2022/06/04 08:59:24;;;;;;;13.05;8.35;;;20.90;54.90;;;;;;5006906;28;20057;-74
2022/06/04 09:01:55;;;;;;;11.77;8.70;;;21.00;53.80;;;;;;5012779;28;20045;-73
2022/06/04 09:04:29;;;;;;;10.40;8.55;;;20.30;54.80;;;;;;5011548;28;20265;-74
2022/06/04 09:07:17;;;;;;;13.30;9.50;;;20.70;54.50;;;;;;5000178;28;20038;-73
2022/06/04 09:09:50;;;;;;;11.02;8.73;;;21.00;53.70;;;;;;4999994;28;20034;-74
2022/06/04 09:12:41;;;;;;;13.20;9.73;;;21.50;53.10;;;;;;5000744;28;20073;-73
2022/06/04 09:15:27;;;;;;;11.20;9.23;;;20.70;53.30;;;;;;4994296;28;20049;-74
2022/06/04 09:17:54;;;;;;;15.35;9.85;;;20.20;55.40;;;;;;4994040;28;20053;-74
2022/06/04 09:20:32;;;;;;;14.00;10.63;;;20.80;54.20;;;;;;4999130;28;20037;-74
2022/06/04 09:23:15;;;;;;;14.48;11.25;;;20.80;53.80;;;;;;5002186;28;20561;-74
2022/06/04 09:25:47;;;;;;;13.38;10.80;;;20.40;54.70;;;;;;4998097;28;20057;-74
2022/06/04 09:28:36;;;;;;;16.55;11.65;;;20.60;55.20;;;;;;5016845;28;20381;-74
2022/06/04 09:31:27;;;;;;;15.02;11.93;;;21.00;54.50;;;;;;5010051;28;20134;-74
2022/06/04 09:34:14;;;;;;;13.93;11.85;;;21.40;53.40;;;;;;5004669;28;20038;-73
2022/06/04 09:36:45;;;;;;;17.13;11.93;;;21.60;53.00;;;;;;5005989;28;20453;-74
2022/06/04 09:39:26;;;;;;;13.00;11.40;;;21.10;52.80;;;;;;5008493;28;20038;-74
2022/06/04 09:41:55;;;;;;;15.70;11.43;;;21.20;53.30;;;;;;5012157;28;20040;-74
2022/06/04 09:44:22;;;;;;;12.93;11.63;;;21.50;53.10;;;;;;5008640;28;20045;-74
2022/06/04 09:46:54;;;;;;;15.70;11.90;;;21.90;52.10;;;;;;5009360;28;21202;-75
2022/06/04 09:49:30;;;;;;;14.02;11.20;;;22.60;51.80;;;;;;5016215;28;20036;-73
2022/06/04 09:51:57;;;;;;;14.68;11.73;;;22.70;50.90;;;;;;5011278;28;20042;-74
2022/06/04 09:54:28;;;;;;;13.93;10.65;;;22.70;51.40;;;;;;5011479;28;20034;-74
2022/06/04 09:56:58;;;;;;;13.98;11.27;;;23.10;51.30;;;;;;5005330;28;20054;-74
2022/06/04 09:59:30;;;;;;;19.63;12.27;;;22.50;50.60;;;;;;5012406;28;20048;-74
2022/06/04 10:02:11;;;;;;;13.45;11.98;;;21.60;52.50;;;;;;5017345;28;20044;-74
2022/06/04 10:04:41;;;;;;;15.98;12.45;;;21.70;52.60;;;;;;4990210;28;20066;-74
2022/06/04 10:07:10;;;;;;;12.95;11.10;;;22.10;51.30;;;;;;4989176;28;20065;-74
2022/06/04 10:09:56;;;;;;;15.07;12.27;;;21.80;53.90;;;;;;4995706;28;20049;-74
2022/06/04 10:15:30;;;;;;;14.85;12.40;;;22.30;52.50;;;;;;4985767;28;20033;-72
2022/06/04 10:18:22;;;;;;;15.65;12.52;;;22.10;51.80;;;;;;4995137;28;20418;-73
2022/06/04 10:21:20;;;;;;;17.67;13.38;;;21.80;54.10;;;;;;5011094;28;20359;-73
2022/06/04 10:23:51;;;;;;;14.55;12.55;;;21.80;53.90;;;;;;5026424;28;20028;-72
2022/06/04 10:26:43;;;;;;;16.88;13.10;;;22.40;52.80;;;;;;5013421;28;20056;-71
2022/06/04 10:29:22;;;;;;;17.15;12.65;;;23.00;51.70;;;;;;4995337;28;20033;-71
2022/06/04 10:31:51;;;;;;;16.42;13.48;;;22.10;52.50;;;;;;4992072;28;20525;-72
2022/06/04 10:34:30;;;;;;;18.02;13.85;;;21.80;53.10;;;;;;5004987;28;20248;-72
2022/06/04 10:37:14;;;;;;;16.23;12.63;;;21.60;53.70;;;;;;4992331;28;20033;-72
2022/06/04 10:39:59;;;;;;;17.70;13.38;;;22.10;54.40;;;;;;4999561;28;20449;-72
2022/06/04 10:42:50;;;;;;;16.80;14.95;;;22.30;52.80;;;;;;4998388;28;20113;-72
2022/06/04 10:45:21;;;;;;;16.55;14.77;;;22.30;53.50;;;;;;5003129;28;20069;-72
2022/06/04 10:47:49;;;;;;;16.70;14.88;;;22.50;51.60;;;;;;5010107;28;20042;-73
2022/06/04 10:53:51;;;;;;;18.92;14.73;;;22.80;51.70;;;;;;5009079;28;20061;-72
2022/06/04 10:56:45;;;;;;;17.20;14.80;;;23.00;51.40;;;;;;5018717;28;20080;-72
2022/06/04 10:59:19;;;;;;;16.15;14.55;;;23.50;50.60;;;;;;5015970;28;20053;-71
2022/06/04 11:02:21;;;;;;;19.20;15.70;;;23.50;50.10;;;;;;4993042;28;20034;-72
2022/06/04 11:05:19;;;;;;;19.20;15.60;;;23.00;50.90;;;;;;4999217;28;20320;-71
2022/06/04 11:07:55;;;;;;;19.02;15.10;;;22.60;52.60;;;;;;4992969;28;20161;-73
2022/06/04 11:10:29;;;;;;;17.77;14.57;;;23.00;51.90;;;;;;4994141;28;20049;-71
2022/06/04 11:13:04;;;;;;;;;;;23.40;52.30;;;;;;4994796;28;20041;-73
2022/06/04 11:15:49;;;;;;;16.73;14.13;;;23.80;50.40;;;;;;4995700;28;20008;-72
2022/06/04 11:18:20;;;;;;;15.85;14.18;;;23.90;49.80;;;;;;4995741;28;21166;-73
2022/06/04 11:20:49;;;;;;;15.75;14.02;;;24.70;49.00;;;;;;4994791;28;20057;-74
2022/06/04 11:23:42;;;;;;;17.92;14.60;;;24.70;47.90;;;;;;4991427;28;20145;-72
2022/06/04 11:26:48;;;;;;;16.45;14.73;;;24.60;48.50;;;;;;4992310;28;20537;-71
2022/06/04 11:29:14;;;;;;;17.10;15.30;;;24.30;49.20;;;;;;4992751;28;20035;-73
2022/06/04 11:32:06;;;;;;;17.83;15.93;;;23.50;50.50;;;;;;4996259;28;20084;-73
2022/06/04 11:34:44;;;;;;;18.05;16.10;;;23.10;51.60;;;;;;5000081;28;20040;-72
2022/06/04 11:37:24;;;;;;;17.33;15.43;;;22.80;52.10;;;;;;4995959;28;20060;-72
2022/06/04 11:40:27;;;;;;;17.40;15.18;;;22.80;53.30;;;;;;4996354;28;20042;-72
2022/06/04 11:43:21;;;;;;;20.70;16.05;;;22.90;53.40;;;;;;5024540;28;20041;-72
2022/06/04 11:46:24;;;;;;;17.70;15.38;;;23.20;53.20;;;;;;4993316;28;20045;-73
2022/06/04 11:48:58;;;;;;;18.52;16.30;;;23.40;52.50;;;;;;5006735;28;20041;-72
2022/06/04 11:51:30;;;;;;;19.13;15.55;;;24.30;51.60;;;;;;5008395;28;20042;-74
2022/06/04 11:54:07;;;;;;;19.35;16.10;;;24.50;49.30;;;;;;5005252;28;20599;-74
2022/06/04 11:56:38;;;;;;;18.63;15.07;;;24.10;50.30;;;;;;5003246;28;20030;-73
2022/06/04 11:59:18;;;;;;;17.17;15.48;;;24.00;51.50;;;;;;5000515;28;20073;-72
2022/06/04 12:01:52;;;;;;;17.35;15.55;;;24.30;50.10;;;;;;5002570;28;20050;-73
2022/06/04 12:04:54;;;;;;;18.35;16.23;;;24.70;48.80;;;;;;5000253;28;20046;-72
2022/06/04 12:07:41;;;;;;;16.23;14.15;;;25.10;48.70;;;;;;4996528;28;20035;-73
2022/06/04 12:10:40;;;;;;;16.85;13.48;;;25.00;49.70;;;;;;4997548;28;20049;-73
2022/06/04 12:13:09;;;;;;;18.40;16.35;;;25.60;47.50;;;;;;4996427;28;20061;-73
2022/06/04 12:15:52;;;;;;;16.90;14.52;;;25.10;47.80;;;;;;5002894;28;20603;-73
2022/06/04 12:18:53;;;;;;;17.38;15.48;;;25.00;49.00;;;;;;5001075;28;20050;-73
2022/06/04 12:24:20;;;;;;;20.02;16.80;;;25.20;48.30;;;;;;4993369;28;20398;-73
2022/06/04 12:26:48;;;;;;;17.08;15.30;;;25.50;47.80;;;;;;4997649;28;20064;-73
2022/06/04 12:29:31;;;;;;;18.67;15.07;;;25.20;48.60;;;;;;4991101;28;20867;-72
2022/06/04 12:32:03;;;;;;;17.80;15.30;;;25.40;47.90;;;;;;4997769;28;20486;-72
2022/06/04 12:34:40;;;;;;;19.35;16.05;;;25.50;47.20;;;;;;4992182;28;20490;-72
2022/06/04 12:37:21;;;;;;;18.80;13.13;;;25.60;47.20;;;;;;4988100;28;20050;-75
2022/06/04 12:39:46;;;;;;;16.83;14.25;;;25.80;46.70;;;;;;4997043;28;20492;-73
2022/06/04 12:42:23;;;;;;;22.35;14.90;;;25.90;46.80;;;;;;4991955;28;20077;-73
2022/06/04 12:45:35;;;;;;;16.70;14.90;;;26.00;46.50;;;;;;4995043;28;20036;-72
2022/06/04 12:48:01;;;;;;;16.70;13.95;;;25.10;47.40;;;;;;4996573;28;20402;-72
2022/06/04 12:50:33;;;;;;;18.35;14.50;;;25.30;48.40;;;;;;4999950;28;20050;-73
2022/06/04 12:53:20;;;;;;;19.75;14.57;;;25.70;47.80;;;;;;5001513;28;20045;-73
2022/06/04 12:55:53;;;;;;;15.68;12.02;;;25.80;47.80;;;;;;5001760;28;20030;-70
2022/06/04 12:58:36;;;;;;;15.43;13.40;;;25.80;47.80;;;;;;4992543;28;20049;-75
2022/06/04 13:01:20;;;;;;;16.45;13.95;;;26.00;46.50;;;;;;4990091;28;20030;-72
2022/06/04 13:04:02;;;;;;;17.23;15.20;;;25.80;47.80;;;;;;4991961;28;20064;-72
2022/06/04 13:06:49;;;;;;;18.50;13.75;;;25.80;47.40;;;;;;4996276;28;20045;-73
2022/06/04 13:09:40;;;;;;;14.23;11.70;;;25.90;47.30;;;;;;4991488;28;20037;-73
2022/06/04 13:12:44;;;;;;;13.95;11.45;;;25.70;46.90;;;;;;4994445;28;20038;-73
2022/06/04 13:15:49;;;;;;;15.30;12.63;;;26.10;46.90;;;;;;4969256;28;20042;-74
2022/06/04 13:18:19;;;;;;;14.27;12.48;;;26.70;45.20;;;;;;4987763;28;20247;-74
2022/06/04 13:20:53;;;;;;;17.48;11.88;;;26.70;44.40;;;;;;4994099;28;20049;-73
2022/06/04 13:23:38;;;;;;;12.95;11.55;;;26.50;44.80;;;;;;4992864;28;20623;-73
2022/06/04 13:26:23;;;;;;;14.93;12.38;;;26.30;45.10;;;;;;4999299;28;20077;-74
2022/06/04 13:28:49;;;;;;;15.40;12.65;;;26.20;45.50;;;;;;4989129;28;20474;-74
2022/06/04 13:31:18;;;;;;;16.48;11.30;;;26.30;45.90;;;;;;4985808;28;20077;-74